sensor_id;sensor_type;location;lat;lon;timestamp;pressure;altitude;pressure_sealevel;temperature;humidity
56392;BME280;42289;53.582;9.714;2022-08-25T00:01:10;101200.06;;;20.52;100.00
56392;BME280;42289;53.582;9.714;2022-08-25T00:03:37;101193.31;;;20.48;100.00
56392;BME280;42289;53.582;9.714;2022-08-25T00:06:06;101198.03;;;20.56;100.00
56392;BME280;42289;53.582;9.714;2022-08-25T00:08:33;101188.44;;;20.55;100.00
56392;BME280;42289;53.582;9.714;2022-08-25T00:11:02;101191.41;;;20.50;100.00
56392;BME280;42289;53.582;9.714;2022-08-25T00:13:29;101183.38;;;20.52;100.00
56392;BME280;42289;53.582;9.714;2022-08-25T00:15:56;101178.09;;;20.52;100.00
56392;BME280;42289;53.582;9.714;2022-08-25T00:18:23;101193.09;;;20.51;100.00
56392;BME280;42289;53.582;9.714;2022-08-25T00:20:49;101178.91;;;20.41;100.00
56392;BME280;42289;53.582;9.714;2022-08-25T00:23:18;101177.13;;;20.53;100.00
56392;BME280;42289;53.582;9.714;2022-08-25T00:25:45;101183.47;;;20.50;100.00
56392;BME280;42289;53.582;9.714;2022-08-25T00:28:11;101188.63;;;20.40;100.00
56392;BME280;42289;53.582;9.714;2022-08-25T00:30:39;101185.03;;;20.41;100.00
56392;BME280;42289;53.582;9.714;2022-08-25T00:33:05;101192.19;;;20.39;100.00
56392;BME280;42289;53.582;9.714;2022-08-25T00:35:32;101187.66;;;20.41;100.00
56392;BME280;42289;53.582;9.714;2022-08-25T00:37:59;101192.66;;;20.33;100.00
56392;BME280;42289;53.582;9.714;2022-08-25T00:40:28;101197.09;;;20.32;100.00
56392;BME280;42289;53.582;9.714;2022-08-25T00:42:55;101206.94;;;20.30;100.00
56392;BME280;42289;53.582;9.714;2022-08-25T00:45:22;101206.59;;;20.35;100.00
56392;BME280;42289;53.582;9.714;2022-08-25T00:47:48;101210.22;;;20.34;100.00
56392;BME280;42289;53.582;9.714;2022-08-25T00:50:15;101214.41;;;20.37;100.00
56392;BME280;42289;53.582;9.714;2022-08-25T00:52:45;101221.59;;;20.34;100.00
56392;BME280;42289;53.582;9.714;2022-08-25T00:55:15;101228.88;;;20.31;100.00
56392;BME280;42289;53.582;9.714;2022-08-25T00:57:47;101224.78;;;20.27;100.00
56392;BME280;42289;53.582;9.714;2022-08-25T01:00:18;101231.25;;;20.23;100.00
56392;BME280;42289;53.582;9.714;2022-08-25T01:02:46;101243.22;;;20.15;100.00
56392;BME280;42289;53.582;9.714;2022-08-25T01:05:13;101255.47;;;20.16;100.00
56392;BME280;42289;53.582;9.714;2022-08-25T01:07:42;101274.38;;;20.10;100.00
56392;BME280;42289;53.582;9.714;2022-08-25T01:10:09;101279.78;;;20.09;100.00
56392;BME280;42289;53.582;9.714;2022-08-25T01:12:38;101285.56;;;20.14;100.00
56392;BME280;42289;53.582;9.714;2022-08-25T01:15:09;101306.16;;;20.09;100.00
56392;BME280;42289;53.582;9.714;2022-08-25T01:17:45;101310.09;;;20.03;100.00
56392;BME280;42289;53.582;9.714;2022-08-25T01:20:12;101327.19;;;19.97;100.00
56392;BME280;42289;53.582;9.714;2022-08-25T01:22:40;101338.06;;;19.93;100.00
56392;BME280;42289;53.582;9.714;2022-08-25T01:25:26;101348.00;;;19.89;100.00
56392;BME280;42289;53.582;9.714;2022-08-25T01:27:57;101369.66;;;19.81;100.00
56392;BME280;42289;53.582;9.714;2022-08-25T01:30:24;101374.13;;;19.79;100.00
56392;BME280;42289;53.582;9.714;2022-08-25T01:32:51;101390.06;;;19.78;100.00
56392;BME280;42289;53.582;9.714;2022-08-25T01:35:18;101405.25;;;19.74;100.00
56392;BME280;42289;53.582;9.714;2022-08-25T01:37:45;101417.19;;;19.67;100.00
56392;BME280;42289;53.582;9.714;2022-08-25T01:40:13;101431.03;;;19.71;100.00
56392;BME280;42289;53.582;9.714;2022-08-25T01:42:47;101449.44;;;19.58;100.00
56392;BME280;42289;53.582;9.714;2022-08-25T01:45:17;101458.31;;;19.57;100.00
56392;BME280;42289;53.582;9.714;2022-08-25T01:47:44;101468.84;;;19.57;100.00
56392;BME280;42289;53.582;9.714;2022-08-25T01:50:10;101476.66;;;19.58;100.00
56392;BME280;42289;53.582;9.714;2022-08-25T01:52:49;101484.56;;;19.58;100.00
56392;BME280;42289;53.582;9.714;2022-08-25T01:55:16;101489.22;;;19.55;100.00
56392;BME280;42289;53.582;9.714;2022-08-25T01:57:42;101504.19;;;19.54;100.00
56392;BME280;42289;53.582;9.714;2022-08-25T02:00:10;101507.25;;;19.48;100.00
56392;BME280;42289;53.582;9.714;2022-08-25T02:02:39;101520.69;;;19.43;100.00
56392;BME280;42289;53.582;9.714;2022-08-25T02:05:07;101528.44;;;19.46;100.00
56392;BME280;42289;53.582;9.714;2022-08-25T02:07:34;101536.06;;;19.37;100.00
56392;BME280;42289;53.582;9.714;2022-08-25T02:10:03;101551.91;;;19.37;100.00
56392;BME280;42289;53.582;9.714;2022-08-25T02:12:31;101573.41;;;19.30;100.00
56392;BME280;42289;53.582;9.714;2022-08-25T02:14:58;101579.72;;;19.28;100.00
56392;BME280;42289;53.582;9.714;2022-08-25T02:17:25;101590.72;;;19.20;100.00
56392;BME280;42289;53.582;9.714;2022-08-25T02:19:52;101602.81;;;19.10;100.00
56392;BME280;42289;53.582;9.714;2022-08-25T02:22:19;101626.44;;;19.11;100.00
56392;BME280;42289;53.582;9.714;2022-08-25T02:24:46;101628.69;;;19.03;100.00
56392;BME280;42289;53.582;9.714;2022-08-25T02:27:14;101638.09;;;18.93;100.00
56392;BME280;42289;53.582;9.714;2022-08-25T02:29:41;101652.03;;;18.95;100.00
56392;BME280;42289;53.582;9.714;2022-08-25T02:32:07;101663.09;;;18.86;100.00
56392;BME280;42289;53.582;9.714;2022-08-25T02:34:34;101667.41;;;18.87;100.00
56392;BME280;42289;53.582;9.714;2022-08-25T02:37:00;101688.81;;;18.66;100.00
56392;BME280;42289;53.582;9.714;2022-08-25T02:39:27;101557.53;;;18.60;100.00
56392;BME280;42289;53.582;9.714;2022-08-25T02:41:53;101557.91;;;18.68;100.00
56392;BME280;42289;53.582;9.714;2022-08-25T02:44:21;101559.88;;;18.64;100.00
56392;BME280;42289;53.582;9.714;2022-08-25T02:46:48;101564.47;;;18.61;100.00
56392;BME280;42289;53.582;9.714;2022-08-25T02:49:14;101566.34;;;18.59;100.00
56392;BME280;42289;53.582;9.714;2022-08-25T02:51:40;101591.91;;;18.57;100.00
56392;BME280;42289;53.582;9.714;2022-08-25T02:54:07;101601.13;;;18.49;100.00
56392;BME280;42289;53.582;9.714;2022-08-25T02:56:33;101603.97;;;18.46;100.00
56392;BME280;42289;53.582;9.714;2022-08-25T02:59:00;101610.91;;;18.47;100.00
56392;BME280;42289;53.582;9.714;2022-08-25T03:01:28;101617.28;;;18.43;100.00
56392;BME280;42289;53.582;9.714;2022-08-25T03:03:55;101622.66;;;18.42;100.00
56392;BME280;42289;53.582;9.714;2022-08-25T03:06:23;101625.47;;;18.39;100.00
56392;BME280;42289;53.582;9.714;2022-08-25T03:08:50;101628.94;;;18.39;100.00
56392;BME280;42289;53.582;9.714;2022-08-25T03:11:18;101632.97;;;18.30;100.00
56392;BME280;42289;53.582;9.714;2022-08-25T03:13:45;101634.91;;;18.27;100.00
56392;BME280;42289;53.582;9.714;2022-08-25T03:16:15;101643.59;;;18.29;100.00
56392;BME280;42289;53.582;9.714;2022-08-25T03:18:43;101653.09;;;18.31;100.00
56392;BME280;42289;53.582;9.714;2022-08-25T03:21:10;101645.72;;;18.22;100.00
56392;BME280;42289;53.582;9.714;2022-08-25T03:23:37;101651.41;;;18.14;100.00
56392;BME280;42289;53.582;9.714;2022-08-25T03:26:04;101660.75;;;18.20;100.00
56392;BME280;42289;53.582;9.714;2022-08-25T03:28:48;101674.91;;;18.18;100.00
56392;BME280;42289;53.582;9.714;2022-08-25T03:31:15;101661.94;;;18.14;100.00
56392;BME280;42289;53.582;9.714;2022-08-25T03:33:43;101666.44;;;18.12;100.00
56392;BME280;42289;53.582;9.714;2022-08-25T03:36:10;101661.66;;;18.19;100.00
56392;BME280;42289;53.582;9.714;2022-08-25T03:38:37;101663.16;;;18.09;100.00
56392;BME280;42289;53.582;9.714;2022-08-25T03:41:11;101656.09;;;18.09;100.00
56392;BME280;42289;53.582;9.714;2022-08-25T03:43:39;101660.53;;;18.09;100.00
56392;BME280;42289;53.582;9.714;2022-08-25T03:46:05;101662.47;;;18.05;100.00
56392;BME280;42289;53.582;9.714;2022-08-25T03:48:32;101665.28;;;18.02;100.00
56392;BME280;42289;53.582;9.714;2022-08-25T03:50:59;101664.69;;;17.97;100.00
56392;BME280;42289;53.582;9.714;2022-08-25T03:53:26;101667.41;;;17.95;100.00
56392;BME280;42289;53.582;9.714;2022-08-25T03:55:52;101674.44;;;17.95;100.00
56392;BME280;42289;53.582;9.714;2022-08-25T03:58:19;101684.22;;;17.93;100.00
56392;BME280;42289;53.582;9.714;2022-08-25T04:00:45;101679.88;;;17.92;100.00
56392;BME280;42289;53.582;9.714;2022-08-25T04:03:12;101684.22;;;17.93;100.00
56392;BME280;42289;53.582;9.714;2022-08-25T04:05:38;101679.53;;;17.98;100.00
56392;BME280;42289;53.582;9.714;2022-08-25T04:08:06;101688.38;;;17.97;100.00
56392;BME280;42289;53.582;9.714;2022-08-25T04:10:33;101687.91;;;17.89;100.00
56392;BME280;42289;53.582;9.714;2022-08-25T04:12:59;101696.81;;;17.86;100.00
56392;BME280;42289;53.582;9.714;2022-08-25T04:15:26;101702.25;;;17.83;100.00
56392;BME280;42289;53.582;9.714;2022-08-25T04:17:52;101697.00;;;17.83;100.00
56392;BME280;42289;53.582;9.714;2022-08-25T04:20:19;101703.56;;;17.92;100.00
56392;BME280;42289;53.582;9.714;2022-08-25T04:22:46;101704.03;;;17.82;100.00
56392;BME280;42289;53.582;9.714;2022-08-25T04:25:14;101700.66;;;17.80;100.00
56392;BME280;42289;53.582;9.714;2022-08-25T04:27:40;101700.66;;;17.80;100.00
56392;BME280;42289;53.582;9.714;2022-08-25T04:30:08;101696.41;;;17.78;100.00
56392;BME280;42289;53.582;9.714;2022-08-25T04:32:35;101699.53;;;17.85;100.00
56392;BME280;42289;53.582;9.714;2022-08-25T04:35:02;101695.38;;;17.80;100.00
56392;BME280;42289;53.582;9.714;2022-08-25T04:37:29;101692.66;;;17.82;100.00
56392;BME280;42289;53.582;9.714;2022-08-25T04:39:55;101696.31;;;17.79;100.00
56392;BME280;42289;53.582;9.714;2022-08-25T04:42:23;101698.84;;;17.81;100.00
56392;BME280;42289;53.582;9.714;2022-08-25T04:44:51;101710.28;;;17.80;100.00
56392;BME280;42289;53.582;9.714;2022-08-25T04:47:18;101708.44;;;17.82;100.00
56392;BME280;42289;53.582;9.714;2022-08-25T04:49:44;101695.22;;;17.83;100.00
56392;BME280;42289;53.582;9.714;2022-08-25T04:52:11;101683.84;;;17.83;100.00
56392;BME280;42289;53.582;9.714;2022-08-25T04:54:37;101686.47;;;17.83;100.00
56392;BME280;42289;53.582;9.714;2022-08-25T04:57:04;101689.63;;;17.90;100.00
56392;BME280;42289;53.582;9.714;2022-08-25T04:59:32;101675.69;;;17.88;100.00
56392;BME280;42289;53.582;9.714;2022-08-25T05:01:59;101681.59;;;17.93;100.00
56392;BME280;42289;53.582;9.714;2022-08-25T05:04:27;101665.25;;;17.86;100.00
56392;BME280;42289;53.582;9.714;2022-08-25T05:06:54;101655.44;;;17.90;100.00
56392;BME280;42289;53.582;9.714;2022-08-25T05:09:20;101645.69;;;17.92;100.00
56392;BME280;42289;53.582;9.714;2022-08-25T05:11:46;101647.97;;;17.98;100.00
56392;BME280;42289;53.582;9.714;2022-08-25T05:14:13;101634.81;;;17.98;100.00
56392;BME280;42289;53.582;9.714;2022-08-25T05:16:43;101631.00;;;18.04;100.00
56392;BME280;42289;53.582;9.714;2022-08-25T05:19:10;101624.78;;;18.05;100.00
56392;BME280;42289;53.582;9.714;2022-08-25T05:21:37;101616.63;;;18.09;100.00
56392;BME280;42289;53.582;9.714;2022-08-25T05:24:04;101608.09;;;18.20;100.00
56392;BME280;42289;53.582;9.714;2022-08-25T05:26:33;101603.88;;;18.18;100.00
56392;BME280;42289;53.582;9.714;2022-08-25T05:29:02;101594.69;;;18.25;100.00
56392;BME280;42289;53.582;9.714;2022-08-25T05:31:30;101593.75;;;18.26;100.00
56392;BME280;42289;53.582;9.714;2022-08-25T05:33:58;101591.34;;;18.37;100.00
56392;BME280;42289;53.582;9.714;2022-08-25T05:36:26;101582.31;;;18.41;100.00
56392;BME280;42289;53.582;9.714;2022-08-25T05:38:53;101585.59;;;18.45;100.00
56392;BME280;42289;53.582;9.714;2022-08-25T05:41:25;101586.00;;;18.53;100.00
56392;BME280;42289;53.582;9.714;2022-08-25T05:43:52;101581.03;;;18.63;100.00
56392;BME280;42289;53.582;9.714;2022-08-25T05:46:19;101575.66;;;18.64;100.00
56392;BME280;42289;53.582;9.714;2022-08-25T05:48:47;101575.94;;;18.74;100.00
56392;BME280;42289;53.582;9.714;2022-08-25T05:51:16;101569.38;;;18.81;100.00
56392;BME280;42289;53.582;9.714;2022-08-25T05:53:44;101569.59;;;18.93;100.00
56392;BME280;42289;53.582;9.714;2022-08-25T05:56:11;101565.63;;;19.00;100.00
56392;BME280;42289;53.582;9.714;2022-08-25T05:58:40;101552.16;;;19.05;100.00
56392;BME280;42289;53.582;9.714;2022-08-25T06:01:07;101548.97;;;19.14;100.00
56392;BME280;42289;53.582;9.714;2022-08-25T06:03:51;101547.72;;;19.20;100.00
56392;BME280;42289;53.582;9.714;2022-08-25T06:06:20;101530.28;;;19.31;100.00
56392;BME280;42289;53.582;9.714;2022-08-25T06:08:47;101521.03;;;19.39;100.00
56392;BME280;42289;53.582;9.714;2022-08-25T06:11:14;101515.34;;;19.45;100.00
56392;BME280;42289;53.582;9.714;2022-08-25T06:13:40;101512.09;;;19.54;100.00
56392;BME280;42289;53.582;9.714;2022-08-25T06:16:07;101506.09;;;19.65;100.00
56392;BME280;42289;53.582;9.714;2022-08-25T06:18:33;101499.69;;;19.69;100.00
56392;BME280;42289;53.582;9.714;2022-08-25T06:21:06;101498.13;;;19.79;100.00
56392;BME280;42289;53.582;9.714;2022-08-25T06:23:35;101487.94;;;19.88;100.00
56392;BME280;42289;53.582;9.714;2022-08-25T06:26:02;101477.19;;;19.91;100.00
56392;BME280;42289;53.582;9.714;2022-08-25T06:28:29;101467.47;;;20.04;100.00
56392;BME280;42289;53.582;9.714;2022-08-25T06:30:57;101463.38;;;20.13;100.00
56392;BME280;42289;53.582;9.714;2022-08-25T06:33:23;101464.00;;;20.42;100.00
56392;BME280;42289;53.582;9.714;2022-08-25T06:35:52;101418.53;;;20.76;100.00
56392;BME280;42289;53.582;9.714;2022-08-25T06:38:22;101378.84;;;21.00;100.00
56392;BME280;42289;53.582;9.714;2022-08-25T06:40:51;101359.84;;;21.19;100.00
56392;BME280;42289;53.582;9.714;2022-08-25T06:43:17;101355.72;;;21.50;100.00
56392;BME280;42289;53.582;9.714;2022-08-25T06:45:43;101338.44;;;21.58;100.00
56392;BME280;42289;53.582;9.714;2022-08-25T06:48:10;101328.47;;;21.84;100.00
56392;BME280;42289;53.582;9.714;2022-08-25T06:50:39;101316.69;;;21.88;100.00
56392;BME280;42289;53.582;9.714;2022-08-25T06:53:06;101322.31;;;22.06;100.00
56392;BME280;42289;53.582;9.714;2022-08-25T06:55:33;101334.09;;;22.47;100.00
56392;BME280;42289;53.582;9.714;2022-08-25T06:58:04;101346.41;;;22.81;100.00
56392;BME280;42289;53.582;9.714;2022-08-25T07:00:31;101358.13;;;22.99;100.00
56392;BME280;42289;53.582;9.714;2022-08-25T07:02:58;101386.66;;;23.40;100.00
56392;BME280;42289;53.582;9.714;2022-08-25T07:05:25;101388.84;;;23.56;100.00
56392;BME280;42289;53.582;9.714;2022-08-25T07:07:52;101353.66;;;23.84;100.00
56392;BME280;42289;53.582;9.714;2022-08-25T07:10:18;101319.97;;;23.85;100.00
56392;BME280;42289;53.582;9.714;2022-08-25T07:12:45;101201.25;;;24.56;100.00
56392;BME280;42289;53.582;9.714;2022-08-25T07:15:12;101170.13;;;23.68;100.00
56392;BME280;42289;53.582;9.714;2022-08-25T07:17:39;101174.38;;;23.40;100.00
56392;BME280;42289;53.582;9.714;2022-08-25T07:20:06;101164.34;;;23.43;100.00
56392;BME280;42289;53.582;9.714;2022-08-25T07:22:33;101144.06;;;24.22;100.00
56392;BME280;42289;53.582;9.714;2022-08-25T07:24:59;101116.25;;;24.16;100.00
56392;BME280;42289;53.582;9.714;2022-08-25T07:27:26;101100.06;;;24.00;100.00
56392;BME280;42289;53.582;9.714;2022-08-25T07:29:52;101078.94;;;24.08;100.00
56392;BME280;42289;53.582;9.714;2022-08-25T07:32:20;101065.47;;;24.29;100.00
56392;BME280;42289;53.582;9.714;2022-08-25T07:34:46;101056.38;;;24.32;100.00
56392;BME280;42289;53.582;9.714;2022-08-25T07:37:31;101064.78;;;24.37;100.00
56392;BME280;42289;53.582;9.714;2022-08-25T07:40:01;101064.97;;;24.16;100.00
56392;BME280;42289;53.582;9.714;2022-08-25T07:42:28;101081.19;;;24.60;100.00
56392;BME280;42289;53.582;9.714;2022-08-25T07:44:54;101116.63;;;24.61;100.00
56392;BME280;42289;53.582;9.714;2022-08-25T07:47:22;101136.50;;;24.57;100.00
56392;BME280;42289;53.582;9.714;2022-08-25T07:49:49;101194.31;;;25.02;100.00
56392;BME280;42289;53.582;9.714;2022-08-25T07:52:16;101174.38;;;24.59;100.00
56392;BME280;42289;53.582;9.714;2022-08-25T07:54:50;101237.53;;;25.33;100.00
56392;BME280;42289;53.582;9.714;2022-08-25T07:57:19;101275.25;;;25.09;100.00
56392;BME280;42289;53.582;9.714;2022-08-25T07:59:48;101263.47;;;25.02;100.00
56392;BME280;42289;53.582;9.714;2022-08-25T08:02:15;101269.69;;;24.73;100.00
56392;BME280;42289;53.582;9.714;2022-08-25T08:04:43;101293.41;;;25.24;100.00
56392;BME280;42289;53.582;9.714;2022-08-25T08:07:10;101298.00;;;25.41;100.00
56392;BME280;42289;53.582;9.714;2022-08-25T08:09:37;101309.97;;;25.08;100.00
56392;BME280;42289;53.582;9.714;2022-08-25T08:12:04;101284.09;;;24.71;100.00
56392;BME280;42289;53.582;9.714;2022-08-25T08:14:31;101302.84;;;24.79;100.00
56392;BME280;42289;53.582;9.714;2022-08-25T08:16:58;101300.19;;;24.98;100.00
56392;BME280;42289;53.582;9.714;2022-08-25T08:19:25;101335.16;;;25.23;100.00
56392;BME280;42289;53.582;9.714;2022-08-25T08:21:53;101322.72;;;24.75;100.00
56392;BME280;42289;53.582;9.714;2022-08-25T08:24:19;101343.13;;;25.23;100.00
56392;BME280;42289;53.582;9.714;2022-08-25T08:26:46;101378.13;;;25.58;100.00
56392;BME280;42289;53.582;9.714;2022-08-25T08:29:12;101366.78;;;25.46;100.00
56392;BME280;42289;53.582;9.714;2022-08-25T08:31:39;101458.28;;;26.77;100.00
56392;BME280;42289;53.582;9.714;2022-08-25T08:34:06;101495.75;;;26.48;100.00
56392;BME280;42289;53.582;9.714;2022-08-25T08:36:32;101608.16;;;27.46;100.00
56392;BME280;42289;53.582;9.714;2022-08-25T08:39:00;101649.47;;;27.52;100.00
56392;BME280;42289;53.582;9.714;2022-08-25T08:41:47;101689.63;;;27.78;100.00
56392;BME280;42289;53.582;9.714;2022-08-25T08:44:41;101677.56;;;27.56;100.00
56392;BME280;42289;53.582;9.714;2022-08-25T08:47:16;101594.63;;;26.07;100.00
56392;BME280;42289;53.582;9.714;2022-08-25T08:49:52;101551.88;;;25.60;100.00
56392;BME280;42289;53.582;9.714;2022-08-25T08:52:28;101519.94;;;25.40;100.00
56392;BME280;42289;53.582;9.714;2022-08-25T08:55:02;101521.63;;;25.51;100.00
56392;BME280;42289;53.582;9.714;2022-08-25T08:57:30;101589.28;;;26.17;100.00
56392;BME280;42289;53.582;9.714;2022-08-25T09:00:04;101535.63;;;25.53;100.00
56392;BME280;42289;53.582;9.714;2022-08-25T09:02:34;101499.25;;;24.93;100.00
56392;BME280;42289;53.582;9.714;2022-08-25T09:05:07;101519.78;;;25.61;100.00
56392;BME280;42289;53.582;9.714;2022-08-25T09:07:39;101506.34;;;25.43;100.00
56392;BME280;42289;53.582;9.714;2022-08-25T09:10:09;101499.38;;;24.92;100.00
56392;BME280;42289;53.582;9.714;2022-08-25T09:12:40;101458.09;;;24.97;100.00
56392;BME280;42289;53.582;9.714;2022-08-25T09:15:16;101499.41;;;25.21;100.00
56392;BME280;42289;53.582;9.714;2022-08-25T09:17:57;101492.66;;;24.88;100.00
56392;BME280;42289;53.582;9.714;2022-08-25T09:20:38;101483.88;;;25.07;100.00
56392;BME280;42289;53.582;9.714;2022-08-25T09:23:19;101395.44;;;24.54;100.00
56392;BME280;42289;53.582;9.714;2022-08-25T09:26:06;101420.41;;;24.73;100.00
56392;BME280;42289;53.582;9.714;2022-08-25T09:28:45;101407.75;;;24.14;100.00
56392;BME280;42289;53.582;9.714;2022-08-25T09:31:16;101300.50;;;24.06;100.00
56392;BME280;42289;53.582;9.714;2022-08-25T09:33:44;101308.19;;;24.09;100.00
56392;BME280;42289;53.582;9.714;2022-08-25T09:36:10;101314.97;;;24.32;100.00
56392;BME280;42289;53.582;9.714;2022-08-25T09:38:37;101366.53;;;25.00;100.00
56392;BME280;42289;53.582;9.714;2022-08-25T09:41:06;101409.09;;;25.49;100.00
56392;BME280;42289;53.582;9.714;2022-08-25T09:43:40;101437.97;;;25.34;100.00
56392;BME280;42289;53.582;9.714;2022-08-25T09:46:11;101461.94;;;25.34;100.00
56392;BME280;42289;53.582;9.714;2022-08-25T09:48:44;101442.72;;;25.11;100.00
56392;BME280;42289;53.582;9.714;2022-08-25T09:51:16;101401.78;;;24.32;100.00
56392;BME280;42289;53.582;9.714;2022-08-25T09:53:47;101362.38;;;24.27;100.00
56392;BME280;42289;53.582;9.714;2022-08-25T09:56:18;101340.56;;;23.93;100.00
56392;BME280;42289;53.582;9.714;2022-08-25T09:58:45;101312.81;;;23.76;100.00
56392;BME280;42289;53.582;9.714;2022-08-25T10:01:14;101310.72;;;23.79;100.00
56392;BME280;42289;53.582;9.714;2022-08-25T10:03:56;101329.41;;;23.89;100.00
56392;BME280;42289;53.582;9.714;2022-08-25T10:06:24;101326.03;;;23.97;100.00
56392;BME280;42289;53.582;9.714;2022-08-25T10:08:56;101352.41;;;24.19;100.00
56392;BME280;42289;53.582;9.714;2022-08-25T10:11:36;101359.56;;;24.29;100.00
56392;BME280;42289;53.582;9.714;2022-08-25T10:14:19;101386.44;;;24.96;100.00
56392;BME280;42289;53.582;9.714;2022-08-25T10:16:47;101435.97;;;25.26;100.00
56392;BME280;42289;53.582;9.714;2022-08-25T10:19:23;101467.25;;;25.34;100.00
56392;BME280;42289;53.582;9.714;2022-08-25T10:22:03;101456.97;;;24.90;100.00
56392;BME280;42289;53.582;9.714;2022-08-25T10:24:30;101470.28;;;24.90;100.00
56392;BME280;42289;53.582;9.714;2022-08-25T10:27:02;101435.41;;;24.93;100.00
56392;BME280;42289;53.582;9.714;2022-08-25T10:29:46;101469.16;;;25.32;100.00
56392;BME280;42289;53.582;9.714;2022-08-25T10:32:21;101475.06;;;25.26;100.00
56392;BME280;42289;53.582;9.714;2022-08-25T10:34:53;101499.00;;;25.84;100.00
56392;BME280;42289;53.582;9.714;2022-08-25T10:37:27;101509.28;;;25.50;100.00
56392;BME280;42289;53.582;9.714;2022-08-25T10:40:06;101539.38;;;25.90;100.00
56392;BME280;42289;53.582;9.714;2022-08-25T10:42:42;101512.47;;;25.24;100.00
56392;BME280;42289;53.582;9.714;2022-08-25T10:45:17;101521.16;;;26.05;100.00
56392;BME280;42289;53.582;9.714;2022-08-25T10:51:06;101541.69;;;25.14;100.00
56392;BME280;42289;53.582;9.714;2022-08-25T10:53:45;101508.22;;;25.02;100.00
56392;BME280;42289;53.582;9.714;2022-08-25T10:56:16;101494.84;;;25.52;100.00
56392;BME280;42289;53.582;9.714;2022-08-25T10:59:13;101541.78;;;25.44;100.00
56392;BME280;42289;53.582;9.714;2022-08-25T11:01:51;101536.31;;;25.45;100.00
56392;BME280;42289;53.582;9.714;2022-08-25T11:04:23;101536.84;;;25.98;100.00
56392;BME280;42289;53.582;9.714;2022-08-25T11:06:55;101561.91;;;26.25;100.00
56392;BME280;42289;53.582;9.714;2022-08-25T11:09:27;101576.00;;;26.55;100.00
56392;BME280;42289;53.582;9.714;2022-08-25T11:11:58;101591.13;;;26.07;100.00
56392;BME280;42289;53.582;9.714;2022-08-25T11:14:31;101599.78;;;26.28;100.00
56392;BME280;42289;53.582;9.714;2022-08-25T11:17:04;101583.38;;;26.23;100.00
56392;BME280;42289;53.582;9.714;2022-08-25T11:19:34;101563.06;;;26.12;100.00
56392;BME280;42289;53.582;9.714;2022-08-25T11:22:06;101571.56;;;26.35;100.00
56392;BME280;42289;53.582;9.714;2022-08-25T11:24:52;101586.56;;;26.46;100.00
56392;BME280;42289;53.582;9.714;2022-08-25T11:27:22;101598.22;;;26.93;100.00
56392;BME280;42289;53.582;9.714;2022-08-25T11:29:58;101611.75;;;27.09;100.00
56392;BME280;42289;53.582;9.714;2022-08-25T11:32:28;101600.69;;;27.22;100.00
56392;BME280;42289;53.582;9.714;2022-08-25T11:35:00;101618.41;;;27.23;100.00
56392;BME280;42289;53.582;9.714;2022-08-25T11:37:28;101594.78;;;27.28;100.00
56392;BME280;42289;53.582;9.714;2022-08-25T11:40:19;101632.91;;;27.48;100.00
56392;BME280;42289;53.582;9.714;2022-08-25T11:43:02;101628.25;;;27.50;100.00
56392;BME280;42289;53.582;9.714;2022-08-25T11:46:04;101638.03;;;27.32;100.00
56392;BME280;42289;53.582;9.714;2022-08-25T11:48:41;101644.84;;;27.16;100.00
56392;BME280;42289;53.582;9.714;2022-08-25T11:51:28;101642.44;;;27.51;100.00
56392;BME280;42289;53.582;9.714;2022-08-25T11:54:13;101634.94;;;27.55;100.00
56392;BME280;42289;53.582;9.714;2022-08-25T11:56:41;101628.41;;;26.93;100.00
56392;BME280;42289;53.582;9.714;2022-08-25T11:59:10;101634.84;;;26.91;100.00
56392;BME280;42289;53.582;9.714;2022-08-25T12:01:59;101629.56;;;26.81;100.00
56392;BME280;42289;53.582;9.714;2022-08-25T12:04:33;101608.59;;;26.96;100.00
56392;BME280;42289;53.582;9.714;2022-08-25T12:07:25;101642.03;;;26.90;100.00
56392;BME280;42289;53.582;9.714;2022-08-25T12:10:11;101647.06;;;26.93;100.00
56392;BME280;42289;53.582;9.714;2022-08-25T12:12:55;101649.44;;;26.96;100.00
56392;BME280;42289;53.582;9.714;2022-08-25T12:15:23;101646.59;;;27.08;100.00
56392;BME280;42289;53.582;9.714;2022-08-25T12:18:08;101659.97;;;26.98;100.00
56392;BME280;42289;53.582;9.714;2022-08-25T12:23:40;101642.94;;;26.71;100.00
56392;BME280;42289;53.582;9.714;2022-08-25T12:26:14;101638.00;;;26.76;100.00
56392;BME280;42289;53.582;9.714;2022-08-25T12:28:58;101650.66;;;26.74;100.00
56392;BME280;42289;53.582;9.714;2022-08-25T12:31:38;101637.97;;;26.86;100.00
56392;BME280;42289;53.582;9.714;2022-08-25T12:34:20;101643.63;;;26.63;100.00
56392;BME280;42289;53.582;9.714;2022-08-25T12:36:57;101636.28;;;26.85;100.00
56392;BME280;42289;53.582;9.714;2022-08-25T12:39:29;101648.00;;;26.74;100.00
56392;BME280;42289;53.582;9.714;2022-08-25T12:42:00;101632.31;;;26.42;100.00
56392;BME280;42289;53.582;9.714;2022-08-25T12:44:40;101630.34;;;26.53;100.00
56392;BME280;42289;53.582;9.714;2022-08-25T12:47:27;101624.28;;;26.71;100.00
56392;BME280;42289;53.582;9.714;2022-08-25T12:50:25;101612.19;;;26.67;100.00
56392;BME280;42289;53.582;9.714;2022-08-25T12:52:53;101629.19;;;26.56;100.00
56392;BME280;42289;53.582;9.714;2022-08-25T12:55:21;101627.03;;;26.69;100.00
56392;BME280;42289;53.582;9.714;2022-08-25T12:57:53;101634.66;;;26.55;100.00
56392;BME280;42289;53.582;9.714;2022-08-25T13:00:24;101627.06;;;26.79;100.00
56392;BME280;42289;53.582;9.714;2022-08-25T13:03:08;101632.56;;;26.58;100.00